Time;durP1;ratioP1;P1;durP2;ratioP2;P2;SDS_P1;SDS_P2;PMS_P1;PMS_P2;Temp;Humidity;BMP_temperature;BMP_pressure;BME280_temperature;BME280_humidity;BME280_pressure;Samples;Min_cycle;Max_cycle;Signal;HPM_P1;HPM_P2
2023/10/11 00:00:37;;;;;;;6.85;2.95;;;10.80;99.90;;;;;;4996565;28;20026;-74
2023/10/11 00:05:40;;;;;;;11.48;3.38;;;10.80;99.90;;;;;;4996743;28;20022;-74
2023/10/11 00:08:09;;;;;;;9.68;3.30;;;10.70;99.90;;;;;;4996819;28;20027;-74
2023/10/11 00:10:42;;;;;;;9.85;3.47;;;10.70;99.90;;;;;;4996743;28;20030;-74
2023/10/11 00:13:10;;;;;;;9.68;3.20;;;10.70;99.90;;;;;;4997030;28;20538;-74
2023/10/11 00:15:36;;;;;;;7.40;3.20;;;10.70;99.90;;;;;;4996619;28;20030;-73
2023/10/11 00:18:02;;;;;;;10.38;3.20;;;10.70;99.90;;;;;;4997167;28;20027;-74
2023/10/11 00:21:15;;;;;;;8.30;3.47;;;10.70;99.90;;;;;;4996856;28;20026;-74
2023/10/11 00:23:23;;;;;;;6.10;2.80;;;10.60;99.90;;;;;;4982833;28;20093;-74
2023/10/11 00:25:53;;;;;;;6.70;2.70;;;10.60;99.90;;;;;;4996471;28;20495;-74
2023/10/11 00:28:26;;;;;;;9.75;2.80;;;10.60;99.90;;;;;;4996532;28;20038;-74
2023/10/11 00:30:54;;;;;;;8.23;3.22;;;10.50;99.90;;;;;;4996706;28;20027;-74
2023/10/11 00:33:20;;;;;;;11.77;3.00;;;10.60;99.90;;;;;;4996409;28;20482;-74
2023/10/11 00:35:49;;;;;;;7.90;2.78;;;10.50;99.90;;;;;;4996235;28;20038;-74
2023/10/11 00:38:20;;;;;;;9.90;3.47;;;10.50;99.90;;;;;;4979339;28;20038;-74
2023/10/11 00:41:12;;;;;;;8.80;3.25;;;10.50;99.90;;;;;;4996815;28;20457;-74
2023/10/11 00:43:46;;;;;;;8.75;3.08;;;10.40;99.90;;;;;;4996285;28;20034;-74
2023/10/11 00:46:14;;;;;;;9.35;3.13;;;10.40;99.90;;;;;;4996894;28;20026;-74
2023/10/11 00:49:08;;;;;;;9.73;4.47;;;10.40;99.90;;;;;;4978597;28;20541;-75
2023/10/11 00:51:36;;;;;;;9.98;3.22;;;10.40;99.90;;;;;;4996056;28;20053;-74
2023/10/11 00:54:04;;;;;;;8.23;2.88;;;10.30;99.90;;;;;;4996227;28;20026;-75
2023/10/11 00:56:34;;;;;;;9.07;2.90;;;10.30;99.90;;;;;;4995773;28;20030;-74
2023/10/11 00:59:01;;;;;;;8.50;2.90;;;10.20;99.90;;;;;;4995935;28;20026;-74
2023/10/11 01:01:26;;;;;;;8.65;2.80;;;10.30;99.90;;;;;;4995673;28;20049;-74
2023/10/11 01:03:53;;;;;;;11.38;3.20;;;10.20;99.90;;;;;;4995503;28;20455;-75
2023/10/11 01:06:19;;;;;;;12.63;3.65;;;10.20;99.90;;;;;;4993721;28;20022;-74
2023/10/11 01:08:48;;;;;;;8.50;3.20;;;10.20;99.90;;;;;;4978270;28;20037;-74
2023/10/11 01:11:15;;;;;;;8.30;3.00;;;10.10;99.90;;;;;;4994813;28;20062;-75
2023/10/11 01:13:42;;;;;;;6.65;3.00;;;10.10;99.90;;;;;;4995338;28;20030;-74
2023/10/11 01:16:11;;;;;;;8.75;3.33;;;10.10;99.90;;;;;;4995283;28;20101;-74
2023/10/11 01:18:40;;;;;;;11.35;3.53;;;10.10;99.90;;;;;;4994717;28;20389;-74
2023/10/11 01:21:07;;;;;;;9.63;3.20;;;10.00;99.90;;;;;;4994996;28;20050;-74
2023/10/11 01:23:34;;;;;;;8.82;3.22;;;10.00;99.90;;;;;;4995212;28;20022;-74
2023/10/11 01:26:07;;;;;;;5.88;2.45;;;10.00;99.90;;;;;;4994994;28;20026;-74
2023/10/11 01:28:37;;;;;;;9.82;3.38;;;10.00;99.90;;;;;;4977713;28;20035;-74
2023/10/11 01:31:10;;;;;;;7.28;3.00;;;9.90;99.90;;;;;;4977623;28;20054;-74
2023/10/11 01:33:41;;;;;;;11.75;3.42;;;9.90;99.90;;;;;;4995116;28;20418;-74
2023/10/11 01:36:09;;;;;;;9.07;3.10;;;9.90;99.90;;;;;;4977398;28;20030;-74
2023/10/11 01:38:48;;;;;;;8.90;2.92;;;9.90;99.90;;;;;;4995068;28;20026;-74
2023/10/11 01:41:20;;;;;;;9.02;3.10;;;9.80;99.90;;;;;;4993483;28;20083;-74
2023/10/11 01:43:49;;;;;;;11.27;3.92;;;9.80;99.90;;;;;;4994636;28;20101;-74
2023/10/11 01:46:24;;;;;;;10.43;4.05;;;9.70;99.90;;;;;;4994308;28;20050;-74
2023/10/11 01:48:50;;;;;;;8.57;3.13;;;9.70;99.90;;;;;;4978343;28;20048;-74
2023/10/11 01:51:20;;;;;;;9.68;3.38;;;9.70;99.90;;;;;;4994747;28;20022;-74
2023/10/11 01:53:46;;;;;;;8.48;2.95;;;9.60;99.90;;;;;;4994849;28;20145;-74
2023/10/11 01:56:13;;;;;;;6.97;3.13;;;9.60;99.90;;;;;;4994700;28;20058;-75
2023/10/11 01:58:42;;;;;;;8.77;2.28;;;9.50;99.90;;;;;;4994721;28;20522;-75
2023/10/11 02:01:22;;;;;;;6.82;2.58;;;9.50;99.90;;;;;;4994700;28;20031;-75
2023/10/11 02:03:54;;;;;;;7.55;2.97;;;9.40;99.90;;;;;;4994953;28;20022;-75
2023/10/11 02:06:23;;;;;;;5.38;2.70;;;9.50;99.90;;;;;;4994555;28;20053;-75
2023/10/11 02:08:53;;;;;;;8.48;3.50;;;9.40;99.90;;;;;;4994563;28;20076;-75
2023/10/11 02:11:24;;;;;;;7.32;2.63;;;9.40;99.90;;;;;;4994552;28;20077;-75
2023/10/11 02:13:51;;;;;;;9.00;2.88;;;9.40;99.90;;;;;;4994811;28;20022;-75
2023/10/11 02:16:17;;;;;;;7.22;2.47;;;9.40;99.90;;;;;;4994222;28;20444;-75
2023/10/11 02:18:43;;;;;;;6.55;2.72;;;9.40;99.90;;;;;;4994454;28;20498;-75
2023/10/11 02:21:09;;;;;;;6.65;2.85;;;9.40;99.90;;;;;;4994401;28;20505;-75
2023/10/11 02:23:39;;;;;;;8.15;3.28;;;9.40;99.90;;;;;;4994372;28;20026;-75
2023/10/11 02:26:18;;;;;;;9.30;3.17;;;9.40;99.90;;;;;;4994342;28;20460;-75
2023/10/11 02:28:45;;;;;;;10.35;4.07;;;9.40;99.90;;;;;;4962443;28;20534;-75
2023/10/11 02:31:14;;;;;;;9.07;3.03;;;9.30;99.90;;;;;;4994519;28;20454;-75
2023/10/11 02:33:40;;;;;;;7.72;2.70;;;9.20;99.90;;;;;;4994176;28;20022;-75
2023/10/11 02:36:17;;;;;;;8.35;3.60;;;9.20;99.90;;;;;;4994078;28;20029;-75
2023/10/11 02:38:47;;;;;;;10.50;3.85;;;9.20;99.90;;;;;;4976812;28;20023;-75
2023/10/11 02:41:25;;;;;;;9.38;3.17;;;9.20;99.90;;;;;;4994285;28;20027;-75
2023/10/11 02:43:57;;;;;;;13.60;3.50;;;9.20;99.90;;;;;;4994118;28;20039;-75
2023/10/11 02:46:23;;;;;;;8.00;2.97;;;9.20;99.90;;;;;;4994233;28;20030;-74
2023/10/11 02:49:18;;;;;;;6.63;3.35;;;9.20;99.90;;;;;;4976656;28;20027;-74
2023/10/11 02:51:59;;;;;;;8.25;2.78;;;9.20;99.90;;;;;;4994304;28;20022;-74
2023/10/11 02:54:38;;;;;;;8.55;3.05;;;9.20;99.90;;;;;;4994288;28;20026;-74
2023/10/11 02:57:20;;;;;;;10.52;2.97;;;9.10;99.90;;;;;;4993869;28;20034;-74
2023/10/11 02:59:50;;;;;;;6.85;2.78;;;9.20;99.90;;;;;;4994236;28;20360;-74
2023/10/11 03:02:16;;;;;;;9.90;2.95;;;9.10;99.90;;;;;;4993917;28;20018;-75
2023/10/11 03:04:42;;;;;;;8.50;2.78;;;9.10;99.90;;;;;;4993892;28;20022;-75
2023/10/11 03:07:15;;;;;;;7.25;2.60;;;9.10;99.90;;;;;;4993751;28;20502;-75
2023/10/11 03:09:40;;;;;;;8.35;2.95;;;9.10;99.90;;;;;;4993859;28;20033;-75
2023/10/11 03:12:18;;;;;;;8.93;3.38;;;9.10;99.90;;;;;;4994131;28;20065;-74
2023/10/11 03:14:45;;;;;;;6.35;2.50;;;9.10;99.90;;;;;;4994021;28;20081;-75
2023/10/11 03:17:15;;;;;;;9.05;3.20;;;9.00;99.90;;;;;;4993670;28;20468;-75
2023/10/11 03:19:43;;;;;;;8.30;3.10;;;9.00;99.90;;;;;;4993759;28;20026;-75
2023/10/11 03:22:12;;;;;;;7.15;2.92;;;9.00;99.90;;;;;;4994025;28;20022;-75
2023/10/11 03:24:40;;;;;;;10.55;3.75;;;9.00;99.90;;;;;;4960715;28;20031;-75
2023/10/11 03:27:10;;;;;;;15.00;3.92;;;9.00;99.90;;;;;;4993640;28;20049;-75
2023/10/11 03:29:36;;;;;;;7.30;3.10;;;8.90;99.90;;;;;;4996942;28;20030;-75
2023/10/11 03:32:05;;;;;;;10.15;3.17;;;8.90;99.90;;;;;;4981052;28;20041;-75
2023/10/11 03:34:31;;;;;;;9.00;3.22;;;8.90;99.90;;;;;;4998327;28;20034;-75
2023/10/11 03:36:59;;;;;;;9.23;2.90;;;8.80;99.90;;;;;;4960186;28;20041;-75
2023/10/11 03:44:47;;;;;;;7.60;2.58;;;8.70;99.90;;;;;;4997410;28;20391;-75
2023/10/11 03:47:14;;;;;;;7.35;2.90;;;8.70;99.90;;;;;;4997027;28;20031;-75
2023/10/11 03:52:19;;;;;;;8.25;2.90;;;8.70;99.90;;;;;;4997029;28;20057;-75
2023/10/11 03:54:52;;;;;;;7.95;2.55;;;8.70;99.90;;;;;;4996930;28;20030;-75
2023/10/11 03:57:18;;;;;;;6.43;3.20;;;8.70;99.90;;;;;;4979317;28;20030;-75
2023/10/11 03:59:48;;;;;;;8.57;2.70;;;8.70;99.90;;;;;;4996230;28;20023;-75
2023/10/11 04:02:17;;;;;;;6.88;2.60;;;8.60;99.90;;;;;;4996815;28;20124;-75
2023/10/11 04:04:48;;;;;;;8.65;3.10;;;8.60;99.90;;;;;;4996054;28;20064;-75
2023/10/11 04:07:15;;;;;;;9.35;2.78;;;8.60;99.90;;;;;;4996124;28;20033;-75
2023/10/11 04:09:44;;;;;;;8.57;2.67;;;8.60;99.90;;;;;;4997442;28;20029;-75
2023/10/11 04:12:10;;;;;;;7.10;2.80;;;8.60;99.90;;;;;;4977842;28;20038;-75
2023/10/11 04:14:44;;;;;;;9.88;3.97;;;8.60;99.90;;;;;;4996039;28;20511;-75
2023/10/11 04:17:26;;;;;;;9.38;2.80;;;8.50;99.90;;;;;;4995780;28;20026;-75
2023/10/11 04:20:18;;;;;;;;;;;8.60;99.90;;;;;;4994570;28;20051;-75
2023/10/11 04:22:50;;;;;;;8.15;2.78;;;8.50;99.90;;;;;;4994696;28;19914;-75
2023/10/11 04:25:18;;;;;;;21.42;8.25;;;8.50;99.90;;;;;;4994687;28;20034;-75
2023/10/11 04:33:20;;;;;;;13.10;4.95;;;8.50;99.90;;;;;;4935914;29;20420;-75
2023/10/11 04:35:55;;;;;;;12.07;4.05;;;8.40;99.90;;;;;;4935649;29;20036;-76
2023/10/11 04:38:22;;;;;;;5.57;2.63;;;8.40;99.90;;;;;;4969526;28;20038;-75
2023/10/11 04:40:54;;;;;;;6.72;3.15;;;8.40;99.90;;;;;;4975650;28;20390;-76
2023/10/11 04:43:29;;;;;;;6.97;2.67;;;8.30;99.90;;;;;;4976902;28;20029;-76
2023/10/11 04:46:00;;;;;;;11.15;4.60;;;8.30;99.90;;;;;;4977837;28;20071;-76
2023/10/11 04:48:30;;;;;;;9.73;4.32;;;8.20;99.90;;;;;;4994184;28;20022;-76
2023/10/11 04:59:36;;;;;;;13.45;6.90;;;8.10;99.90;;;;;;4995075;28;20113;-75
2023/10/11 05:02:11;;;;;;;28.98;12.82;;;8.10;99.90;;;;;;4977935;28;20495;-76
2023/10/11 05:04:42;;;;;;;19.75;9.23;;;8.10;99.90;;;;;;4995854;28;20050;-76
2023/10/11 05:07:09;;;;;;;16.38;7.68;;;8.00;99.90;;;;;;4995697;28;20499;-76
2023/10/11 05:09:39;;;;;;;13.77;7.47;;;8.00;99.90;;;;;;4978321;28;20030;-76
2023/10/11 05:19:45;;;;;;;10.65;5.28;;;8.10;99.90;;;;;;4995711;28;20018;-76
2023/10/11 05:22:29;;;;;;;9.43;4.72;;;8.00;99.90;;;;;;4995559;28;20027;-76
2023/10/11 05:33:09;;;;;;;7.35;3.60;;;8.00;99.90;;;;;;4995320;28;20026;-73
2023/10/11 05:51:51;;;;;;;6.88;2.83;;;7.90;99.90;;;;;;4995472;28;20449;-73
2023/10/11 05:54:16;;;;;;;10.48;3.30;;;7.90;99.90;;;;;;4995544;28;20029;-73
2023/10/11 05:56:47;;;;;;;7.57;3.25;;;7.90;99.90;;;;;;4994899;28;20402;-73
2023/10/11 05:59:14;;;;;;;10.98;3.47;;;7.90;99.90;;;;;;4995112;28;20049;-73
2023/10/11 06:01:47;;;;;;;8.25;3.28;;;7.90;99.90;;;;;;4994760;28;20023;-73
2023/10/11 06:04:14;;;;;;;7.53;3.10;;;7.90;99.90;;;;;;4994769;28;20034;-73
2023/10/11 06:06:45;;;;;;;6.28;3.35;;;7.90;99.90;;;;;;4994632;28;20041;-73
2023/10/11 06:09:17;;;;;;;7.35;3.20;;;7.80;99.90;;;;;;4994688;28;20054;-74
2023/10/11 06:11:50;;;;;;;8.00;3.42;;;7.90;99.90;;;;;;4994655;28;20027;-73
2023/10/11 06:14:18;;;;;;;9.13;3.28;;;7.80;99.90;;;;;;4977114;28;20030;-73
2023/10/11 06:16:57;;;;;;;8.73;3.33;;;7.90;99.90;;;;;;4994432;28;20030;-73
2023/10/11 06:19:27;;;;;;;10.73;3.08;;;7.90;99.90;;;;;;4977185;28;20394;-73
2023/10/11 06:24:36;;;;;;;7.20;3.20;;;7.90;99.90;;;;;;4994702;28;20125;-73
2023/10/11 06:29:53;;;;;;;9.00;3.78;;;8.00;99.90;;;;;;4979926;28;20077;-74
2023/10/11 06:32:23;;;;;;;8.65;3.40;;;8.00;99.90;;;;;;4994299;28;20031;-73
2023/10/11 06:34:52;;;;;;;11.05;3.83;;;8.00;99.90;;;;;;4994253;28;20018;-74
2023/10/11 06:37:24;;;;;;;10.13;3.53;;;8.10;99.90;;;;;;4994126;28;20474;-73
2023/10/11 06:40:08;;;;;;;12.95;3.30;;;8.10;99.90;;;;;;4994609;28;20023;-73
2023/10/11 06:42:33;;;;;;;13.13;4.15;;;8.20;99.90;;;;;;4994417;28;20047;-74
2023/10/11 06:45:05;;;;;;;11.77;4.25;;;8.20;99.90;;;;;;4977015;28;20494;-74
2023/10/11 06:47:33;;;;;;;15.52;4.35;;;8.20;99.90;;;;;;4994407;28;20034;-73
2023/10/11 06:50:10;;;;;;;10.90;4.43;;;8.30;99.90;;;;;;4994389;28;20027;-73
2023/10/11 06:52:42;;;;;;;11.13;4.05;;;8.30;99.90;;;;;;4994287;28;20030;-74
2023/10/11 06:57:39;;;;;;;9.98;4.18;;;8.50;99.90;;;;;;4994170;28;20069;-73
2023/10/11 07:00:21;;;;;;;8.15;4.15;;;8.50;99.90;;;;;;4994198;28;20019;-74
2023/10/11 07:03:26;;;;;;;8.82;3.83;;;8.60;99.90;;;;;;4996032;28;20030;-73
2023/10/11 07:05:59;;;;;;;9.60;3.90;;;8.70;99.90;;;;;;4998019;28;20018;-73
2023/10/11 07:08:35;;;;;;;9.50;4.35;;;8.80;99.90;;;;;;4998068;28;20027;-73
2023/10/11 07:11:17;;;;;;;12.45;4.82;;;8.80;99.90;;;;;;4980576;28;20035;-73
2023/10/11 07:13:54;;;;;;;8.48;4.43;;;8.90;99.90;;;;;;4980446;28;20031;-73
2023/10/11 07:16:21;;;;;;;11.15;4.97;;;9.00;99.90;;;;;;4997989;28;20022;-73
2023/10/11 07:18:48;;;;;;;9.18;4.85;;;9.10;99.90;;;;;;4998521;28;20485;-74
2023/10/11 07:21:19;;;;;;;11.68;5.05;;;9.20;99.90;;;;;;4997757;28;20026;-73
2023/10/11 07:26:23;;;;;;;15.73;5.32;;;9.40;99.90;;;;;;4997632;28;20487;-73
2023/10/11 07:28:53;;;;;;;11.35;4.47;;;9.50;99.90;;;;;;4997757;28;20022;-73
2023/10/11 07:31:20;;;;;;;13.77;5.72;;;9.60;99.90;;;;;;4997591;28;20026;-73
2023/10/11 07:33:50;;;;;;;15.65;6.95;;;9.70;99.90;;;;;;4980924;28;20376;-73
2023/10/11 07:36:19;;;;;;;14.82;6.55;;;9.80;99.90;;;;;;4999132;28;20383;-74
2023/10/11 07:38:54;;;;;;;12.75;5.55;;;9.90;99.90;;;;;;4997856;28;20057;-73
2023/10/11 07:41:29;;;;;;;15.98;5.05;;;10.00;99.90;;;;;;4997479;28;20050;-73
2023/10/11 07:44:01;;;;;;;14.88;5.13;;;10.10;99.90;;;;;;4997903;28;20522;-74
2023/10/11 07:46:28;;;;;;;16.15;4.88;;;10.30;99.90;;;;;;4997412;28;20034;-73
2023/10/11 07:49:01;;;;;;;15.68;4.43;;;10.40;99.90;;;;;;4997285;28;20037;-73
2023/10/11 07:51:34;;;;;;;10.73;4.43;;;10.50;99.90;;;;;;4997813;28;20042;-74
2023/10/11 07:54:06;;;;;;;12.52;4.50;;;10.60;99.90;;;;;;4997498;28;20037;-73
2023/10/11 07:56:35;;;;;;;7.78;3.92;;;10.80;99.90;;;;;;4997082;28;20026;-73
2023/10/11 07:59:07;;;;;;;16.20;5.20;;;10.90;99.90;;;;;;4997062;28;20023;-73
2023/10/11 08:01:42;;;;;;;12.55;4.45;;;11.00;99.90;;;;;;4997408;28;20033;-74
2023/10/11 08:04:12;;;;;;;14.95;4.72;;;11.20;99.90;;;;;;4997571;28;20025;-73
2023/10/11 08:06:40;;;;;;;14.38;4.60;;;11.30;99.90;;;;;;4979468;28;20034;-73
2023/10/11 08:09:09;;;;;;;14.70;4.60;;;11.50;99.90;;;;;;4997407;28;20026;-73
2023/10/11 08:11:45;;;;;;;15.05;5.20;;;11.60;99.90;;;;;;4996970;28;20031;-73
2023/10/11 08:14:21;;;;;;;16.98;4.95;;;11.80;99.90;;;;;;4978626;28;20031;-73
2023/10/11 08:16:49;;;;;;;15.20;4.55;;;11.90;99.90;;;;;;4996927;28;20026;-73
2023/10/11 08:19:15;;;;;;;17.88;4.45;;;12.00;99.90;;;;;;4996681;28;20019;-74
2023/10/11 08:21:41;;;;;;;14.40;4.93;;;12.20;99.90;;;;;;4979233;28;20117;-73
2023/10/11 08:24:15;;;;;;;16.85;6.75;;;12.40;99.90;;;;;;4996616;28;20030;-73
2023/10/11 08:26:42;;;;;;;17.85;7.47;;;12.50;99.90;;;;;;4996446;28;20430;-73
2023/10/11 08:29:27;;;;;;;22.27;7.88;;;12.60;99.90;;;;;;4996504;28;20058;-73
2023/10/11 08:31:56;;;;;;;26.73;8.48;;;12.80;99.90;;;;;;4996774;28;20027;-73
2023/10/11 08:34:23;;;;;;;18.08;7.30;;;13.00;99.90;;;;;;4996743;28;20531;-73
2023/10/11 08:36:48;;;;;;;16.98;6.03;;;13.00;99.90;;;;;;4996222;28;20117;-73
2023/10/11 08:39:14;;;;;;;20.65;5.63;;;13.20;99.90;;;;;;4996305;28;20106;-73
2023/10/11 08:41:43;;;;;;;15.32;4.95;;;13.30;99.90;;;;;;4946963;28;20052;-73
2023/10/11 08:44:20;;;;;;;18.92;6.25;;;13.40;99.90;;;;;;4996575;28;20106;-73
2023/10/11 08:46:50;;;;;;;18.00;5.80;;;13.50;99.90;;;;;;4996687;28;20034;-74
2023/10/11 08:49:17;;;;;;;16.23;4.60;;;13.70;99.90;;;;;;4996160;28;20109;-74
2023/10/11 08:51:43;;;;;;;9.82;3.92;;;13.80;99.90;;;;;;4996318;28;20053;-73
2023/10/11 08:54:16;;;;;;;11.93;3.75;;;14.00;99.90;;;;;;4978557;28;20038;-73
2023/10/11 08:56:54;;;;;;;9.68;3.65;;;14.10;99.90;;;;;;4995941;28;20029;-73
2023/10/11 08:59:27;;;;;;;11.57;3.15;;;14.20;99.90;;;;;;4996580;28;20364;-73
2023/10/11 09:02:07;;;;;;;16.20;3.75;;;14.30;99.90;;;;;;4996285;28;20058;-73
2023/10/11 09:04:35;;;;;;;15.25;4.10;;;14.50;99.90;;;;;;4996256;28;20122;-73
2023/10/11 09:07:02;;;;;;;11.05;3.80;;;14.60;99.90;;;;;;4995772;28;20018;-73
2023/10/11 09:09:33;;;;;;;16.30;4.15;;;14.70;99.90;;;;;;4995991;28;20038;-74
2023/10/11 09:11:59;;;;;;;12.93;3.90;;;14.80;99.90;;;;;;4996026;28;20105;-73
2023/10/11 09:14:28;;;;;;;12.85;3.28;;;14.90;99.90;;;;;;4995667;28;20031;-73
2023/10/11 09:16:57;;;;;;;11.82;3.03;;;15.00;99.90;;;;;;4995484;28;20391;-73
2023/10/11 09:19:24;;;;;;;15.40;3.40;;;15.20;99.90;;;;;;4978151;28;20176;-73
2023/10/11 09:22:17;;;;;;;8.13;3.20;;;15.30;99.90;;;;;;4995476;28;20467;-74
2023/10/11 09:24:44;;;;;;;10.93;2.55;;;15.40;99.90;;;;;;4995498;28;20030;-74
2023/10/11 09:29:46;;;;;;;11.63;3.10;;;15.60;99.90;;;;;;4995725;28;20022;-73
2023/10/11 09:32:27;;;;;;;11.68;2.95;;;15.80;99.90;;;;;;4995411;28;20035;-73
2023/10/11 09:34:54;;;;;;;14.90;3.28;;;15.90;99.90;;;;;;4995804;28;20038;-73
2023/10/11 09:37:20;;;;;;;11.00;3.30;;;16.00;99.90;;;;;;4978094;28;20031;-73
2023/10/11 09:39:51;;;;;;;11.13;2.78;;;16.20;99.90;;;;;;4995212;28;20030;-73
2023/10/11 09:42:16;;;;;;;27.67;4.20;;;16.30;99.90;;;;;;4995500;28;20037;-73
2023/10/11 09:44:45;;;;;;;13.02;3.65;;;16.40;99.90;;;;;;4995079;28;20023;-73
2023/10/11 09:47:18;;;;;;;12.15;3.75;;;16.60;99.90;;;;;;4995062;28;20030;-73
2023/10/11 09:49:47;;;;;;;11.45;3.70;;;16.70;99.90;;;;;;4995638;28;20030;-73
2023/10/11 09:52:17;;;;;;;12.50;3.65;;;16.80;99.90;;;;;;4994950;28;20026;-73
2023/10/11 09:54:44;;;;;;;9.35;3.47;;;16.90;99.90;;;;;;4995535;28;20480;-73
2023/10/11 09:57:15;;;;;;;11.80;2.97;;;17.00;99.90;;;;;;4994782;28;20031;-73
2023/10/11 10:00:00;;;;;;;9.60;3.13;;;17.10;99.90;;;;;;4994928;28;20019;-73
2023/10/11 10:02:37;;;;;;;9.73;3.13;;;17.30;99.90;;;;;;4995107;28;20110;-73
2023/10/11 10:05:06;;;;;;;13.45;3.60;;;17.40;99.90;;;;;;4994692;28;20093;-73
2023/10/11 10:10:07;;;;;;;15.85;3.95;;;17.60;99.90;;;;;;4994709;28;20030;-73
2023/10/11 10:12:54;;;;;;;13.60;3.38;;;17.60;99.90;;;;;;4994617;28;20026;-73
2023/10/11 10:15:23;;;;;;;13.90;3.08;;;17.70;99.90;;;;;;4994527;28;20029;-73
2023/10/11 10:18:03;;;;;;;12.50;2.95;;;17.80;99.90;;;;;;4994408;28;20026;-73
2023/10/11 10:20:41;;;;;;;13.35;3.00;;;17.90;99.90;;;;;;4977079;28;20022;-73
2023/10/11 10:23:20;;;;;;;16.13;3.47;;;18.00;99.90;;;;;;4994708;28;20109;-73
2023/10/11 10:26:02;;;;;;;12.43;3.33;;;18.10;99.90;;;;;;4994309;28;20030;-73
2023/10/11 10:28:36;;;;;;;13.77;2.83;;;18.20;99.90;;;;;;4994525;28;20076;-73
2023/10/11 10:31:12;;;;;;;11.10;3.42;;;18.30;99.90;;;;;;4976870;28;20081;-73
2023/10/11 10:33:42;;;;;;;10.75;3.20;;;18.40;99.90;;;;;;4994885;28;20021;-73
2023/10/11 10:36:28;;;;;;;15.95;3.28;;;18.60;99.90;;;;;;4994163;28;20030;-73
2023/10/11 10:39:00;;;;;;;18.80;3.50;;;18.60;99.90;;;;;;4976636;28;20034;-73
2023/10/11 10:41:37;;;;;;;11.25;3.15;;;18.80;99.90;;;;;;4994173;28;20137;-73
2023/10/11 10:44:10;;;;;;;10.50;3.10;;;18.90;99.90;;;;;;4994194;28;20507;-73
2023/10/11 10:46:45;;;;;;;14.20;3.55;;;19.00;99.90;;;;;;4994066;28;20057;-73
2023/10/11 10:49:11;;;;;;;14.13;3.65;;;19.10;99.90;;;;;;4994466;28;20360;-73
2023/10/11 10:51:37;;;;;;;10.70;2.67;;;19.20;99.90;;;;;;4994053;28;20109;-73
2023/10/11 10:54:25;;;;;;;11.63;3.20;;;19.30;99.90;;;;;;4994171;28;20114;-73
2023/10/11 10:56:53;;;;;;;9.23;2.50;;;19.40;99.90;;;;;;4993346;28;20039;-73
2023/10/11 10:59:20;;;;;;;13.40;3.30;;;19.50;99.90;;;;;;4994016;28;20025;-73
2023/10/11 11:01:48;;;;;;;11.45;3.22;;;19.50;99.90;;;;;;4994234;28;20022;-73
2023/10/11 11:04:20;;;;;;;11.40;3.25;;;19.70;99.90;;;;;;4993973;28;20464;-73
2023/10/11 11:06:47;;;;;;;9.48;3.10;;;19.70;99.90;;;;;;4994200;28;20062;-73
2023/10/11 11:09:15;;;;;;;14.38;3.28;;;19.80;99.70;;;;;;4993876;28;20023;-73
2023/10/11 11:11:46;;;;;;;10.68;3.47;;;19.90;99.90;;;;;;4993937;28;20554;-73
2023/10/11 11:14:13;;;;;;;;;;;19.90;99.90;;;;;;4994520;28;20101;-73
2023/10/11 11:16:41;;;;;;;8.80;3.08;;;20.10;99.90;;;;;;4993785;28;20004;-73
2023/10/11 11:19:25;;;;;;;14.85;3.75;;;20.10;99.90;;;;;;4993880;28;20364;-73
2023/10/11 11:22:02;;;;;;;12.95;3.33;;;20.30;99.90;;;;;;4994424;28;20030;-73
2023/10/11 11:24:38;;;;;;;14.23;4.03;;;20.30;99.90;;;;;;4994423;28;20423;-73
2023/10/11 11:27:15;;;;;;;12.95;3.67;;;20.40;99.90;;;;;;4993708;28;20046;-73
2023/10/11 11:29:40;;;;;;;12.07;3.53;;;20.50;99.90;;;;;;4976859;28;20031;-73
2023/10/11 11:32:16;;;;;;;13.00;3.53;;;20.50;99.90;;;;;;4993817;28;20398;-73
2023/10/11 11:35:02;;;;;;;11.57;3.05;;;20.60;99.90;;;;;;4976286;28;20043;-73
2023/10/11 11:37:33;;;;;;;12.45;3.35;;;20.80;99.90;;;;;;4992972;28;20074;-73
2023/10/11 11:42:47;;;;;;;16.17;3.55;;;21.00;99.90;;;;;;4979351;28;20080;-73
2023/10/11 11:45:17;;;;;;;13.48;3.40;;;21.10;99.90;;;;;;4993823;28;20387;-73
2023/10/11 11:48:00;;;;;;;8.98;3.10;;;21.20;98.70;;;;;;4976249;28;20030;-73
2023/10/11 11:50:31;;;;;;;10.70;3.28;;;21.30;99.80;;;;;;4997594;28;20030;-73
2023/10/11 11:52:57;;;;;;;10.77;3.20;;;21.40;99.30;;;;;;4997813;28;20035;-73
2023/10/11 11:55:23;;;;;;;9.45;2.97;;;21.50;99.40;;;;;;4998723;28;20080;-73
2023/10/11 11:57:50;;;;;;;11.50;3.42;;;21.70;99.30;;;;;;5010674;28;20037;-73
2023/10/11 12:02:55;;;;;;;12.05;3.03;;;21.90;97.20;;;;;;4997662;28;20027;-73
2023/10/11 12:05:21;;;;;;;15.93;3.33;;;22.00;97.10;;;;;;4995715;28;20029;-73
2023/10/11 12:07:50;;;;;;;12.40;3.35;;;22.10;97.20;;;;;;4994788;28;20495;-73
2023/10/11 12:10:25;;;;;;;9.85;2.42;;;22.10;97.80;;;;;;4996465;28;20041;-73
2023/10/11 12:13:01;;;;;;;11.13;3.17;;;22.20;96.70;;;;;;4994389;28;20027;-73
2023/10/11 12:15:28;;;;;;;15.70;3.17;;;22.30;97.20;;;;;;4996165;28;20038;-73
2023/10/11 12:17:54;;;;;;;7.65;2.70;;;22.40;96.20;;;;;;4995799;28;20399;-73
2023/10/11 12:20:22;;;;;;;12.27;3.20;;;22.50;96.30;;;;;;4996274;28;20023;-73
2023/10/11 12:22:50;;;;;;;11.48;3.13;;;22.60;95.10;;;;;;4995096;28;20353;-73
2023/10/11 12:25:24;;;;;;;9.43;2.83;;;22.60;94.60;;;;;;4995464;28;20049;-73
2023/10/11 12:27:51;;;;;;;7.88;2.85;;;22.80;96.00;;;;;;4996125;28;20030;-73
2023/10/11 12:30:22;;;;;;;13.95;2.90;;;22.90;95.40;;;;;;4995688;28;20105;-73
2023/10/11 12:32:49;;;;;;;9.50;3.22;;;23.00;95.00;;;;;;4994922;28;20041;-73
2023/10/11 12:35:16;;;;;;;16.92;3.67;;;23.10;94.50;;;;;;4995487;28;20050;-73
2023/10/11 12:37:42;;;;;;;11.68;3.33;;;23.20;95.30;;;;;;4995188;28;20018;-73
2023/10/11 12:40:21;;;;;;;12.50;2.90;;;23.30;93.60;;;;;;4996334;28;20034;-73
2023/10/11 12:42:48;;;;;;;10.63;3.00;;;23.40;91.30;;;;;;4995512;28;20033;-73
2023/10/11 12:45:17;;;;;;;9.77;2.78;;;23.30;93.00;;;;;;4995142;28;20027;-73
2023/10/11 12:47:43;;;;;;;10.77;2.90;;;23.40;93.40;;;;;;4996352;28;20436;-73
2023/10/11 12:50:09;;;;;;;9.70;2.75;;;23.50;93.00;;;;;;4996559;28;20035;-73
2023/10/11 12:52:38;;;;;;;10.63;3.15;;;23.70;91.80;;;;;;4995970;28;20458;-73
2023/10/11 12:55:06;;;;;;;11.77;3.22;;;23.80;92.50;;;;;;4996234;28;20034;-73
2023/10/11 12:57:32;;;;;;;10.35;3.63;;;23.90;93.70;;;;;;4994344;28;20026;-73
2023/10/11 12:59:58;;;;;;;8.88;3.10;;;24.10;93.80;;;;;;4995164;28;20049;-72
2023/10/11 13:02:33;;;;;;;11.27;3.17;;;24.10;92.90;;;;;;4994971;28;20046;-71
2023/10/11 13:04:59;;;;;;;16.48;3.65;;;24.20;92.10;;;;;;4995637;28;20049;-72
2023/10/11 13:07:29;;;;;;;11.65;3.30;;;24.30;91.80;;;;;;4994690;28;20396;-72
2023/10/11 13:10:02;;;;;;;9.10;2.83;;;24.40;91.40;;;;;;4992824;28;20031;-72
2023/10/11 13:12:29;;;;;;;10.05;2.80;;;24.40;89.10;;;;;;4995234;28;20034;-72
2023/10/11 13:14:55;;;;;;;10.07;2.30;;;24.50;90.80;;;;;;4994044;28;20029;-72
2023/10/11 13:17:21;;;;;;;10.35;3.13;;;24.60;88.00;;;;;;4995066;28;20030;-72
2023/10/11 13:19:48;;;;;;;8.68;3.10;;;24.70;87.70;;;;;;4994500;28;20031;-72
2023/10/11 13:22:14;;;;;;;9.32;2.78;;;24.80;85.00;;;;;;4995450;28;20030;-72
2023/10/11 13:24:40;;;;;;;11.80;2.90;;;24.90;88.50;;;;;;4994141;28;20029;-72
2023/10/11 13:27:07;;;;;;;11.70;2.60;;;25.00;79.40;;;;;;4995266;28;20161;-72
2023/10/11 13:29:32;;;;;;;9.27;2.88;;;25.00;76.50;;;;;;4995009;28;20117;-72
2023/10/11 13:31:58;;;;;;;8.88;2.80;;;25.00;75.20;;;;;;4995015;28;20416;-72
2023/10/11 13:34:29;;;;;;;9.73;2.88;;;25.10;76.20;;;;;;4994334;28;20124;-72
2023/10/11 13:36:57;;;;;;;22.60;6.05;;;25.10;77.30;;;;;;4995164;28;20122;-72
2023/10/11 13:39:27;;;;;;;14.18;4.57;;;25.20;76.90;;;;;;4993741;28;20038;-72
2023/10/11 13:42:09;;;;;;;11.13;2.90;;;25.20;75.70;;;;;;4994475;28;20108;-72
2023/10/11 13:44:37;;;;;;;8.82;2.67;;;25.30;77.10;;;;;;4995044;28;20556;-72
2023/10/11 13:47:04;;;;;;;7.88;2.50;;;25.40;76.40;;;;;;4994190;28;20034;-72
2023/10/11 13:49:33;;;;;;;7.40;2.60;;;25.40;76.80;;;;;;4994688;28;20034;-72
2023/10/11 13:52:02;;;;;;;9.77;2.88;;;25.40;76.60;;;;;;4993924;28;20030;-72
2023/10/11 13:54:34;;;;;;;11.40;2.42;;;25.50;75.00;;;;;;4994947;28;20031;-72
2023/10/11 13:57:01;;;;;;;10.50;2.63;;;25.40;73.60;;;;;;4994416;28;20483;-72
2023/10/11 13:59:36;;;;;;;8.88;2.65;;;25.40;73.40;;;;;;4976258;28;20109;-73
2023/10/11 14:02:32;;;;;;;10.40;2.95;;;25.40;75.40;;;;;;4994302;28;20154;-72
2023/10/11 14:07:36;;;;;;;9.00;2.80;;;25.40;76.00;;;;;;4993255;28;20450;-72
2023/10/11 14:10:14;;;;;;;9.20;2.20;;;25.40;72.90;;;;;;4993948;28;20031;-72
2023/10/11 14:12:40;;;;;;;6.95;2.80;;;25.30;71.20;;;;;;4993562;28;20034;-72
2023/10/11 14:15:29;;;;;;;13.48;3.47;;;25.30;72.90;;;;;;4993123;28;20479;-72
2023/10/11 14:17:54;;;;;;;12.45;3.28;;;25.10;74.30;;;;;;4993509;28;20050;-72
2023/10/11 14:20:21;;;;;;;7.95;3.00;;;25.00;76.00;;;;;;4989741;28;20475;-72
2023/10/11 14:22:48;;;;;;;10.52;2.80;;;24.90;78.10;;;;;;4993888;28;20030;-72
2023/10/11 14:25:14;;;;;;;8.43;2.78;;;24.70;79.40;;;;;;4994057;28;20034;-72